Time;durP1;ratioP1;P1;durP2;ratioP2;P2;SDS_P1;SDS_P2;PMS_P1;PMS_P2;Temp;Humidity;BMP_temperature;BMP_pressure;BME280_temperature;BME280_humidity;BME280_pressure;Samples;Min_cycle;Max_cycle;Signal;HPM_P1;HPM_P2
2023/07/09 00:01:23;;;;;;;3.43;3.03;;;21.20;70.90;;;;;;5059301;28;20654;-74
2023/07/09 00:03:51;;;;;;;4.80;2.80;;;21.20;70.00;;;;;;5054912;28;20626;-74
2023/07/09 00:06:20;;;;;;;3.77;3.47;;;21.20;71.30;;;;;;5059958;28;20748;-74
2023/07/09 00:08:47;;;;;;;4.00;3.40;;;21.10;71.60;;;;;;5055656;28;20649;-74
2023/07/09 00:11:15;;;;;;;3.37;3.07;;;21.20;70.90;;;;;;5060877;28;20656;-74
2023/07/09 00:13:41;;;;;;;3.17;2.93;;;21.20;70.40;;;;;;5056146;28;20629;-74
2023/07/09 00:16:14;;;;;;;3.73;2.77;;;21.10;71.70;;;;;;5055965;28;20647;-74
2023/07/09 00:18:40;;;;;;;3.60;3.30;;;21.00;72.60;;;;;;5060774;28;20676;-74
2023/07/09 00:21:07;;;;;;;3.43;3.13;;;20.90;72.80;;;;;;5057032;28;20651;-74
2023/07/09 00:23:38;;;;;;;3.03;2.70;;;20.90;73.30;;;;;;5061766;28;20630;-74
2023/07/09 00:26:09;;;;;;;3.50;2.77;;;20.90;74.40;;;;;;5064787;28;20707;-74
2023/07/09 00:28:36;;;;;;;4.13;3.40;;;21.00;74.00;;;;;;5063246;28;20654;-74
2023/07/09 00:31:03;;;;;;;3.50;3.20;;;20.90;74.00;;;;;;5057335;28;20661;-74
2023/07/09 00:33:31;;;;;;;3.23;2.93;;;20.80;74.60;;;;;;5060229;28;20728;-74
2023/07/09 00:35:58;;;;;;;3.37;3.10;;;20.80;73.80;;;;;;5058277;28;20996;-74
2023/07/09 00:38:25;;;;;;;3.20;2.90;;;20.90;73.00;;;;;;5060104;28;20736;-74
2023/07/09 00:41:04;;;;;;;3.70;3.10;;;21.00;73.40;;;;;;5061227;28;20649;-74
2023/07/09 00:43:34;;;;;;;2.80;2.60;;;20.90;74.00;;;;;;5063792;28;20635;-74
2023/07/09 00:46:39;;;;;;;3.63;3.33;;;21.00;74.00;;;;;;5066063;28;20741;-74
2023/07/09 00:49:10;;;;;;;2.97;2.67;;;20.90;74.40;;;;;;5068575;28;20664;-74
2023/07/09 00:51:41;;;;;;;4.37;3.60;;;20.90;73.70;;;;;;5061418;28;21206;-74
2023/07/09 00:54:15;;;;;;;4.47;4.00;;;20.80;74.00;;;;;;5062054;28;21014;-74
2023/07/09 00:56:51;;;;;;;4.60;3.43;;;20.70;73.50;;;;;;5069160;28;20665;-74
2023/07/09 00:59:23;;;;;;;4.50;4.10;;;20.70;74.60;;;;;;5057740;28;20633;-74
2023/07/09 01:01:50;;;;;;;4.30;3.60;;;20.70;73.30;;;;;;5062101;28;20660;-74
2023/07/09 01:04:21;;;;;;;3.87;3.57;;;20.80;73.30;;;;;;5065058;28;20622;-74
2023/07/09 01:06:51;;;;;;;3.40;3.10;;;20.80;74.10;;;;;;5068875;28;20665;-74
2023/07/09 01:09:18;;;;;;;4.17;3.77;;;20.60;75.00;;;;;;5059024;28;20756;-74
2023/07/09 01:11:47;;;;;;;4.13;3.73;;;20.60;75.30;;;;;;5061167;28;20679;-74
2023/07/09 01:14:19;;;;;;;3.40;3.10;;;20.50;76.20;;;;;;5067560;28;21172;-74
2023/07/09 01:16:57;;;;;;;3.63;3.30;;;20.40;76.70;;;;;;5062816;28;20656;-74
2023/07/09 01:19:25;;;;;;;3.43;3.13;;;20.40;76.90;;;;;;5067559;28;20625;-74
2023/07/09 01:21:58;;;;;;;4.33;3.80;;;20.40;77.20;;;;;;5069670;28;20678;-74
2023/07/09 01:24:57;;;;;;;3.60;3.30;;;20.30;77.70;;;;;;5066774;28;20641;-74
2023/07/09 01:27:28;;;;;;;3.57;3.27;;;20.30;78.10;;;;;;5060749;28;20649;-74
2023/07/09 01:29:57;;;;;;;3.80;3.23;;;20.20;78.10;;;;;;5068790;28;20685;-74
2023/07/09 01:32:24;;;;;;;4.27;3.50;;;20.20;78.40;;;;;;5068696;28;20753;-74
2023/07/09 01:34:54;;;;;;;3.50;3.20;;;20.20;78.10;;;;;;5068209;28;20630;-74
2023/07/09 01:37:26;;;;;;;3.40;3.10;;;20.20;77.90;;;;;;5068508;28;20650;-74
2023/07/09 01:39:54;;;;;;;4.43;3.57;;;20.20;78.40;;;;;;5066782;28;21209;-74
2023/07/09 01:42:26;;;;;;;4.70;2.97;;;20.10;77.40;;;;;;5051452;28;20650;-74
2023/07/09 01:44:55;;;;;;;4.20;3.80;;;20.20;77.20;;;;;;5061287;28;20626;-74
2023/07/09 01:47:24;;;;;;;4.27;3.80;;;20.20;77.40;;;;;;5068691;28;20645;-74
2023/07/09 01:49:51;;;;;;;3.50;3.20;;;20.20;77.80;;;;;;5057518;28;20723;-74
2023/07/09 01:52:19;;;;;;;3.77;2.87;;;20.20;79.30;;;;;;5066833;28;20658;-74
2023/07/09 01:54:49;;;;;;;4.80;3.57;;;20.10;79.80;;;;;;5067219;28;20637;-74
2023/07/09 01:57:22;;;;;;;3.10;2.90;;;20.10;79.70;;;;;;5069159;28;20677;-74
2023/07/09 01:59:52;;;;;;;3.40;2.70;;;20.00;79.40;;;;;;5064409;28;20625;-74
2023/07/09 02:02:20;;;;;;;3.40;3.10;;;20.00;79.20;;;;;;5064053;28;21018;-74
2023/07/09 02:04:48;;;;;;;2.93;2.63;;;20.00;79.00;;;;;;5065968;28;20614;-74
2023/07/09 02:07:16;;;;;;;3.90;2.93;;;20.10;78.80;;;;;;5060202;28;20681;-74
2023/07/09 02:09:43;;;;;;;3.73;2.80;;;20.00;79.10;;;;;;5065941;28;20670;-74
2023/07/09 02:12:13;;;;;;;2.60;2.40;;;19.90;79.60;;;;;;5061077;28;20654;-74
2023/07/09 02:14:41;;;;;;;3.77;2.90;;;19.90;79.00;;;;;;5059960;28;21220;-74
2023/07/09 02:17:10;;;;;;;3.33;3.03;;;20.00;79.20;;;;;;5066365;28;20646;-74
2023/07/09 02:19:38;;;;;;;3.70;2.83;;;19.90;79.00;;;;;;5066359;28;20634;-74
2023/07/09 02:22:06;;;;;;;2.90;2.40;;;19.90;79.60;;;;;;5062594;28;21237;-74
2023/07/09 02:24:33;;;;;;;3.13;2.80;;;19.90;79.10;;;;;;5061141;28;20630;-74
2023/07/09 02:27:02;;;;;;;2.77;2.57;;;19.80;79.20;;;;;;5057275;28;20673;-74
2023/07/09 02:29:31;;;;;;;3.77;3.10;;;19.80;79.40;;;;;;5064489;28;20657;-74
2023/07/09 02:32:00;;;;;;;2.60;2.40;;;19.80;79.00;;;;;;5060046;28;20650;-74
2023/07/09 02:34:29;;;;;;;4.20;3.37;;;19.80;80.40;;;;;;5056437;28;20634;-74
2023/07/09 02:36:57;;;;;;;4.57;3.27;;;19.70;80.50;;;;;;5060388;28;20641;-74
2023/07/09 02:39:26;;;;;;;2.77;2.57;;;19.80;80.10;;;;;;5058632;28;20639;-74
2023/07/09 02:41:53;;;;;;;2.93;2.50;;;19.70;81.20;;;;;;5060960;28;20764;-74
2023/07/09 02:44:20;;;;;;;2.93;2.57;;;19.60;81.00;;;;;;5053411;28;20639;-74
2023/07/09 02:46:49;;;;;;;2.33;2.13;;;19.70;80.40;;;;;;5057103;28;21257;-74
2023/07/09 02:49:17;;;;;;;2.33;2.23;;;19.70;80.40;;;;;;5055258;28;20658;-74
2023/07/09 02:51:44;;;;;;;3.87;3.57;;;19.70;80.20;;;;;;5057969;28;20660;-74
2023/07/09 02:54:11;;;;;;;3.80;2.97;;;19.60;81.50;;;;;;5065535;28;21056;-74
2023/07/09 02:56:39;;;;;;;3.27;2.87;;;19.60;81.50;;;;;;5067295;28;21073;-74
2023/07/09 02:59:06;;;;;;;3.07;2.77;;;19.60;81.90;;;;;;5065070;28;20649;-74
2023/07/09 03:01:34;;;;;;;3.10;2.60;;;19.50;81.70;;;;;;5059833;28;20944;-74
2023/07/09 03:04:03;;;;;;;6.13;3.47;;;19.60;81.30;;;;;;5059325;28;20631;-74
2023/07/09 03:06:33;;;;;;;2.87;2.63;;;19.60;80.60;;;;;;5048797;28;20655;-74
2023/07/09 03:09:01;;;;;;;3.30;3.00;;;19.60;80.30;;;;;;5053649;28;21171;-74
2023/07/09 03:11:31;;;;;;;2.77;2.37;;;19.60;80.70;;;;;;5067254;28;20645;-74
2023/07/09 03:13:58;;;;;;;3.80;3.43;;;19.60;80.90;;;;;;5064289;28;20703;-74
2023/07/09 03:16:27;;;;;;;3.27;3.07;;;19.50;81.80;;;;;;5067427;28;21271;-74
2023/07/09 03:18:56;;;;;;;3.80;2.50;;;19.40;81.80;;;;;;5066089;28;20622;-74
2023/07/09 03:21:27;;;;;;;2.93;2.63;;;19.40;82.00;;;;;;5059514;28;20662;-74
2023/07/09 03:23:55;;;;;;;3.17;2.90;;;19.40;81.90;;;;;;5064961;28;20664;-74
2023/07/09 03:26:25;;;;;;;3.33;3.07;;;19.40;82.90;;;;;;5065191;28;21133;-74
2023/07/09 03:28:54;;;;;;;3.30;3.00;;;19.40;82.60;;;;;;5066625;28;20626;-74
2023/07/09 03:31:21;;;;;;;2.40;2.20;;;19.40;82.90;;;;;;5067017;28;20677;-74
2023/07/09 03:33:48;;;;;;;3.87;3.40;;;19.40;82.60;;;;;;5065611;28;20657;-74
2023/07/09 03:36:15;;;;;;;2.90;2.70;;;19.40;82.70;;;;;;5061674;28;20660;-74
2023/07/09 03:38:45;;;;;;;3.07;2.53;;;19.40;83.40;;;;;;5060143;28;20797;-74
2023/07/09 03:41:12;;;;;;;3.10;2.90;;;19.30;84.50;;;;;;5062293;28;21208;-74
2023/07/09 03:43:39;;;;;;;5.53;2.37;;;19.30;84.90;;;;;;5060999;28;20635;-74
2023/07/09 03:46:05;;;;;;;3.00;2.80;;;19.30;84.90;;;;;;5060827;28;20684;-74
2023/07/09 03:48:32;;;;;;;3.70;3.10;;;19.40;84.70;;;;;;5059330;28;20997;-74
2023/07/09 03:50:59;;;;;;;3.03;2.83;;;19.50;83.40;;;;;;5062854;28;21233;-74
2023/07/09 03:53:26;;;;;;;4.80;2.87;;;19.50;82.80;;;;;;5054135;28;21171;-74
2023/07/09 03:55:56;;;;;;;3.60;3.30;;;19.60;82.60;;;;;;5057414;28;20749;-74
2023/07/09 03:58:24;;;;;;;3.10;2.80;;;19.60;82.50;;;;;;5060004;28;20638;-74
2023/07/09 04:00:50;;;;;;;2.93;2.53;;;19.60;83.20;;;;;;5063342;28;21235;-74
2023/07/09 04:03:17;;;;;;;2.63;2.43;;;19.60;82.40;;;;;;5059265;28;20625;-74
2023/07/09 04:05:44;;;;;;;3.80;3.47;;;19.60;82.20;;;;;;5052377;28;21089;-74
2023/07/09 04:08:11;;;;;;;3.50;3.30;;;19.60;82.20;;;;;;5063606;28;20654;-74
2023/07/09 04:10:37;;;;;;;3.57;3.27;;;19.60;82.70;;;;;;5069091;28;20677;-74
2023/07/09 04:13:06;;;;;;;3.63;2.67;;;19.60;83.20;;;;;;5058787;28;21017;-75
2023/07/09 04:15:33;;;;;;;4.40;3.70;;;19.50;83.90;;;;;;5064368;28;20844;-75
2023/07/09 04:18:00;;;;;;;3.10;2.50;;;19.50;83.60;;;;;;5062850;28;20628;-75
2023/07/09 04:20:27;;;;;;;3.30;3.10;;;19.50;84.10;;;;;;5062048;28;21269;-74
2023/07/09 04:22:54;;;;;;;3.17;2.87;;;19.50;84.10;;;;;;5062539;28;20633;-75
2023/07/09 04:25:21;;;;;;;2.83;2.63;;;19.60;84.10;;;;;;5061572;28;20983;-75
2023/07/09 04:27:50;;;;;;;3.53;2.87;;;19.70;83.70;;;;;;5068288;28;20659;-75
2023/07/09 04:30:18;;;;;;;2.53;2.33;;;19.80;84.20;;;;;;5060555;28;20662;-75
2023/07/09 04:32:45;;;;;;;4.27;3.50;;;19.80;84.00;;;;;;5068877;28;20744;-75
2023/07/09 04:35:13;;;;;;;3.13;2.70;;;19.80;84.20;;;;;;5065333;28;20617;-75
2023/07/09 04:37:40;;;;;;;3.30;3.00;;;20.00;83.80;;;;;;5069226;28;20632;-75
2023/07/09 04:40:10;;;;;;;5.30;3.03;;;20.10;84.00;;;;;;5063411;28;20664;-75
2023/07/09 04:42:38;;;;;;;3.60;3.30;;;20.20;83.50;;;;;;5065455;28;21179;-75
2023/07/09 04:45:06;;;;;;;4.20;2.90;;;20.30;82.40;;;;;;5063428;28;20634;-75
2023/07/09 04:47:34;;;;;;;4.33;2.90;;;20.40;82.00;;;;;;5069484;28;20620;-75
2023/07/09 04:50:01;;;;;;;3.77;3.07;;;20.40;81.90;;;;;;5063826;28;20673;-75
2023/07/09 04:52:28;;;;;;;4.20;3.00;;;20.50;81.50;;;;;;5062783;28;20656;-75
2023/07/09 04:54:55;;;;;;;3.97;3.60;;;20.60;82.10;;;;;;5062833;28;20730;-75
2023/07/09 04:57:22;;;;;;;2.77;2.57;;;20.60;81.20;;;;;;5067532;28;21301;-75
2023/07/09 04:59:49;;;;;;;4.17;2.70;;;20.70;81.00;;;;;;5065164;28;20641;-76
2023/07/09 05:02:16;;;;;;;3.00;2.77;;;20.80;81.10;;;;;;5063404;28;21064;-75
2023/07/09 05:04:44;;;;;;;3.60;2.73;;;20.80;81.40;;;;;;5065525;28;20650;-75
2023/07/09 05:07:10;;;;;;;2.73;2.53;;;20.80;81.70;;;;;;5061431;28;20656;-75
2023/07/09 05:09:37;;;;;;;4.73;2.77;;;20.90;81.40;;;;;;5061080;28;21236;-75
2023/07/09 05:12:05;;;;;;;3.13;2.83;;;21.10;79.40;;;;;;5065217;28;20653;-75
2023/07/09 05:14:32;;;;;;;3.70;3.40;;;21.30;79.40;;;;;;5059484;28;20641;-75
2023/07/09 05:16:58;;;;;;;3.00;2.80;;;21.40;78.90;;;;;;5066510;28;21012;-75
2023/07/09 05:19:25;;;;;;;3.37;3.07;;;21.60;78.80;;;;;;5060038;28;21201;-75
2023/07/09 05:21:53;;;;;;;5.87;4.70;;;21.50;78.20;;;;;;5069562;28;20660;-75
2023/07/09 05:24:20;;;;;;;3.40;3.00;;;21.60;77.50;;;;;;5065867;28;20626;-75
2023/07/09 05:26:47;;;;;;;2.50;2.33;;;21.60;77.60;;;;;;5068199;28;21231;-75
2023/07/09 05:29:14;;;;;;;2.80;2.60;;;21.80;78.40;;;;;;5068037;28;20622;-75
2023/07/09 05:31:41;;;;;;;4.53;3.50;;;21.80;78.10;;;;;;5068532;28;20777;-75
2023/07/09 05:34:08;;;;;;;3.43;3.10;;;21.90;78.20;;;;;;5068770;28;20650;-76
2023/07/09 05:36:35;;;;;;;2.90;2.70;;;21.80;77.90;;;;;;5065380;28;20667;-76
2023/07/09 05:39:04;;;;;;;4.20;3.40;;;21.80;78.60;;;;;;5066552;28;21428;-76
2023/07/09 05:41:30;;;;;;;3.67;3.37;;;21.80;77.60;;;;;;5063052;28;20665;-80
2023/07/09 05:43:57;;;;;;;3.37;3.07;;;21.90;77.40;;;;;;5066558;28;20626;-76
2023/07/09 05:46:24;;;;;;;2.80;2.60;;;22.00;76.90;;;;;;5060335;28;20687;-74
2023/07/09 05:48:51;;;;;;;3.00;2.80;;;22.20;76.40;;;;;;5067928;28;20623;-74
2023/07/09 05:51:18;;;;;;;4.00;3.60;;;22.30;75.30;;;;;;5063178;28;21259;-75
2023/07/09 05:53:45;;;;;;;5.00;2.90;;;22.40;75.80;;;;;;5065211;28;20724;-75
2023/07/09 05:56:13;;;;;;;5.10;3.00;;;22.40;76.00;;;;;;5066863;28;21174;-74
2023/07/09 05:58:39;;;;;;;7.90;4.07;;;22.50;74.80;;;;;;5063014;28;20636;-75
2023/07/09 06:01:07;;;;;;;3.47;3.17;;;22.50;74.90;;;;;;5067188;28;20672;-77
2023/07/09 06:03:33;;;;;;;4.07;3.30;;;22.60;75.10;;;;;;5062145;28;20994;-76
2023/07/09 06:06:00;;;;;;;6.03;3.33;;;22.60;76.00;;;;;;5066478;28;20752;-76
2023/07/09 06:08:27;;;;;;;2.83;2.63;;;22.70;75.20;;;;;;5066974;28;20639;-75
2023/07/09 06:10:59;;;;;;;3.87;3.50;;;22.90;75.00;;;;;;5057765;28;20672;-75
2023/07/09 06:13:30;;;;;;;4.50;3.13;;;23.00;74.20;;;;;;5064282;28;20640;-75
2023/07/09 06:15:58;;;;;;;3.00;2.80;;;23.10;74.00;;;;;;5067886;28;20669;-75
2023/07/09 06:18:28;;;;;;;3.40;3.10;;;23.20;73.90;;;;;;5058734;28;20631;-75
2023/07/09 06:20:57;;;;;;;3.73;3.43;;;23.30;73.30;;;;;;5055840;28;21278;-75
2023/07/09 06:23:24;;;;;;;4.93;3.70;;;23.40;73.50;;;;;;5050691;28;21203;-75
2023/07/09 06:25:52;;;;;;;3.10;2.90;;;23.50;73.30;;;;;;5066257;28;20657;-75
2023/07/09 06:28:21;;;;;;;3.30;3.00;;;23.70;72.90;;;;;;5062715;28;20637;-75
2023/07/09 06:30:50;;;;;;;4.50;3.20;;;23.70;73.40;;;;;;5062184;28;21039;-77
2023/07/09 06:33:18;;;;;;;3.77;3.00;;;23.70;73.40;;;;;;5061230;28;21193;-75
2023/07/09 06:35:49;;;;;;;2.73;2.53;;;23.80;73.00;;;;;;5067858;28;20976;-78
2023/07/09 06:38:16;;;;;;;3.57;3.37;;;23.90;73.10;;;;;;5064160;28;20635;-78
2023/07/09 06:40:43;;;;;;;3.30;3.10;;;24.00;72.20;;;;;;5057590;28;20670;-73
2023/07/09 06:43:10;;;;;;;3.50;3.20;;;24.10;71.50;;;;;;5062618;28;20717;-75
2023/07/09 06:45:37;;;;;;;4.77;3.20;;;24.20;70.30;;;;;;5058737;28;20666;-76
2023/07/09 06:48:06;;;;;;;3.10;2.90;;;24.20;70.10;;;;;;5058846;28;20673;-75
2023/07/09 06:50:37;;;;;;;3.87;3.23;;;24.40;70.50;;;;;;5058403;28;20680;-75
2023/07/09 06:53:04;;;;;;;3.67;3.13;;;24.50;70.70;;;;;;5061084;28;20633;-75
2023/07/09 06:55:31;;;;;;;3.43;3.00;;;24.60;69.80;;;;;;5057001;28;21036;-75
2023/07/09 06:57:58;;;;;;;3.00;2.80;;;24.80;70.00;;;;;;5062256;28;20637;-75
2023/07/09 07:00:25;;;;;;;3.80;3.50;;;24.90;68.30;;;;;;5060846;28;20683;-75
2023/07/09 07:02:51;;;;;;;3.97;3.40;;;24.90;68.60;;;;;;5057791;28;20731;-76
2023/07/09 07:05:20;;;;;;;5.73;3.67;;;25.00;68.20;;;;;;5057335;28;20712;-73
2023/07/09 07:07:46;;;;;;;3.37;2.77;;;25.10;69.50;;;;;;5065024;28;20648;-73
2023/07/09 07:10:13;;;;;;;4.53;4.13;;;25.10;68.40;;;;;;5065947;28;20682;-74
2023/07/09 07:12:45;;;;;;;3.10;2.70;;;25.20;67.90;;;;;;5065517;28;20629;-75
2023/07/09 07:15:14;;;;;;;3.40;3.00;;;25.40;67.20;;;;;;5061344;28;20719;-74
2023/07/09 07:17:41;;;;;;;3.80;3.40;;;25.50;66.20;;;;;;5060328;28;20628;-74
2023/07/09 07:20:10;;;;;;;2.90;2.70;;;25.60;65.50;;;;;;5061736;28;20637;-74
2023/07/09 07:22:38;;;;;;;3.03;2.83;;;25.80;67.20;;;;;;5065077;28;21243;-74
2023/07/09 07:25:06;;;;;;;4.63;3.00;;;25.90;66.50;;;;;;5067059;28;20893;-75
2023/07/09 07:27:33;;;;;;;3.20;2.87;;;26.00;65.90;;;;;;5058931;28;20631;-74
2023/07/09 07:30:00;;;;;;;3.50;3.07;;;26.10;64.60;;;;;;5066282;28;20731;-75
2023/07/09 07:32:27;;;;;;;3.50;3.20;;;26.30;63.40;;;;;;5064819;28;20645;-75
2023/07/09 07:34:54;;;;;;;3.90;3.13;;;26.60;64.10;;;;;;5060168;28;20759;-74
2023/07/09 07:37:21;;;;;;;4.17;3.50;;;26.60;63.90;;;;;;5056303;28;21062;-74
2023/07/09 07:39:52;;;;;;;3.43;3.13;;;26.60;62.00;;;;;;5058261;28;20639;-74
2023/07/09 07:42:19;;;;;;;3.20;2.90;;;26.70;62.50;;;;;;5059916;28;20663;-74
2023/07/09 07:44:46;;;;;;;3.83;3.07;;;26.90;62.60;;;;;;5059330;28;20629;-74
2023/07/09 07:47:13;;;;;;;4.50;3.40;;;27.00;63.00;;;;;;5063002;28;20680;-74
2023/07/09 07:49:40;;;;;;;3.40;3.20;;;27.20;62.00;;;;;;5060940;28;20997;-74
2023/07/09 07:52:08;;;;;;;3.80;3.43;;;27.30;62.20;;;;;;5058548;28;20688;-74
2023/07/09 07:54:35;;;;;;;3.90;3.00;;;27.20;61.50;;;;;;5063402;28;20628;-73
2023/07/09 07:57:03;;;;;;;3.77;3.43;;;27.20;61.30;;;;;;5060481;28;20659;-73
2023/07/09 07:59:32;;;;;;;3.90;3.60;;;27.40;60.90;;;;;;5058601;28;20631;-74
2023/07/09 08:01:59;;;;;;;3.30;3.03;;;27.60;60.70;;;;;;5061544;28;20653;-75
2023/07/09 08:04:26;;;;;;;3.00;2.70;;;27.70;58.90;;;;;;5061350;28;21701;-75
2023/07/09 08:06:53;;;;;;;3.50;2.83;;;27.80;59.20;;;;;;5064013;28;21380;-75
2023/07/09 08:09:20;;;;;;;4.17;3.80;;;28.00;58.70;;;;;;5060178;28;20708;-74
2023/07/09 08:11:50;;;;;;;3.30;3.00;;;28.00;57.60;;;;;;5066378;28;20657;-74
2023/07/09 08:14:18;;;;;;;2.87;2.40;;;28.10;57.90;;;;;;5063373;28;20620;-75
2023/07/09 08:16:45;;;;;;;2.47;2.27;;;28.20;58.10;;;;;;5064589;28;21210;-75
2023/07/09 08:19:12;;;;;;;3.23;2.43;;;28.40;57.40;;;;;;5068857;28;20944;-75
2023/07/09 08:21:39;;;;;;;3.53;2.77;;;28.30;57.00;;;;;;5067440;28;20752;-74
2023/07/09 08:24:06;;;;;;;5.40;2.47;;;28.40;57.50;;;;;;5061867;28;20634;-74
2023/07/09 08:26:33;;;;;;;3.07;2.77;;;28.50;56.50;;;;;;5068094;28;20731;-75
2023/07/09 08:29:00;;;;;;;2.60;2.40;;;28.60;57.10;;;;;;5069158;28;20626;-75
2023/07/09 08:31:28;;;;;;;3.67;3.37;;;28.70;56.20;;;;;;5067258;28;21226;-75
2023/07/09 08:33:55;;;;;;;2.93;2.70;;;28.80;55.80;;;;;;5069188;28;20628;-75
2023/07/09 08:36:22;;;;;;;2.90;2.70;;;28.90;55.10;;;;;;5067964;28;20656;-74
2023/07/09 08:38:48;;;;;;;3.07;2.77;;;29.00;55.80;;;;;;5068281;28;20619;-74
2023/07/09 08:41:26;;;;;;;3.57;3.27;;;29.10;55.80;;;;;;5064785;28;21174;-74
2023/07/09 08:44:01;;;;;;;3.90;2.70;;;29.30;54.60;;;;;;5059938;28;21363;-75
2023/07/09 08:46:37;;;;;;;3.50;3.20;;;29.50;55.20;;;;;;5067661;28;20652;-73
2023/07/09 08:49:07;;;;;;;3.37;3.07;;;29.60;54.40;;;;;;5068745;28;20613;-74
2023/07/09 08:51:38;;;;;;;4.63;3.03;;;29.60;54.90;;;;;;5065058;28;20665;-74
2023/07/09 08:54:13;;;;;;;4.30;3.00;;;29.70;54.30;;;;;;5066924;28;20621;-75
2023/07/09 08:56:40;;;;;;;3.53;3.23;;;29.80;54.10;;;;;;5065193;28;21085;-75
2023/07/09 08:59:09;;;;;;;3.27;2.97;;;30.00;53.80;;;;;;5059595;28;20741;-75
2023/07/09 09:01:43;;;;;;;3.27;2.70;;;30.20;53.00;;;;;;5059310;28;20666;-75
2023/07/09 09:04:19;;;;;;;2.97;2.30;;;30.10;52.20;;;;;;5061096;28;20627;-75
2023/07/09 09:06:52;;;;;;;2.83;2.60;;;30.30;52.50;;;;;;5067003;28;20689;-75
2023/07/09 09:09:26;;;;;;;3.10;2.90;;;30.50;51.20;;;;;;5061272;28;20633;-75
2023/07/09 09:12:00;;;;;;;2.93;2.43;;;30.40;50.00;;;;;;5067696;28;20672;-75
2023/07/09 09:14:30;;;;;;;2.60;2.40;;;30.40;52.50;;;;;;5056984;28;20725;-75
2023/07/09 09:17:00;;;;;;;4.23;3.83;;;30.50;52.90;;;;;;5062494;28;21222;-75
2023/07/09 09:19:36;;;;;;;2.80;2.60;;;30.60;51.80;;;;;;5060201;28;20736;-73
2023/07/09 09:22:08;;;;;;;3.40;3.10;;;30.80;50.20;;;;;;5057118;28;20731;-73
2023/07/09 09:24:39;;;;;;;2.87;2.67;;;30.90;51.20;;;;;;5056058;28;20633;-74
2023/07/09 09:27:06;;;;;;;5.10;2.60;;;31.00;51.00;;;;;;5065019;28;21239;-74
2023/07/09 09:29:32;;;;;;;3.73;3.07;;;31.10;50.10;;;;;;5067766;28;20985;-74
2023/07/09 09:32:15;;;;;;;2.70;2.50;;;31.20;50.50;;;;;;5065230;28;20674;-74
2023/07/09 09:34:41;;;;;;;2.27;2.17;;;31.30;50.20;;;;;;5061956;28;20621;-74
2023/07/09 09:37:11;;;;;;;3.97;3.03;;;31.30;49.10;;;;;;5064104;28;20653;-74
2023/07/09 09:39:39;;;;;;;3.07;2.87;;;31.40;50.70;;;;;;5068536;28;21457;-74
2023/07/09 09:42:12;;;;;;;3.77;2.50;;;31.20;50.60;;;;;;5067959;28;20646;-74
2023/07/09 09:44:45;;;;;;;2.70;2.00;;;31.20;51.20;;;;;;5061998;28;20732;-74
2023/07/09 09:47:13;;;;;;;4.70;2.80;;;31.50;49.40;;;;;;5068081;28;20656;-74
2023/07/09 09:49:41;;;;;;;2.97;2.77;;;31.60;47.30;;;;;;5063571;28;20636;-75
2023/07/09 09:52:13;;;;;;;2.97;2.70;;;31.60;48.10;;;;;;5064015;28;20689;-74
2023/07/09 09:54:42;;;;;;;2.97;2.53;;;31.80;48.00;;;;;;5069023;28;20629;-75
2023/07/09 09:57:17;;;;;;;2.37;2.17;;;32.00;48.10;;;;;;5067888;28;20653;-74
2023/07/09 09:59:46;;;;;;;5.07;3.30;;;32.00;46.90;;;;;;5064693;28;20625;-75
2023/07/09 10:02:19;;;;;;;5.83;4.40;;;32.20;46.10;;;;;;5067256;28;20685;-75
2023/07/09 10:04:47;;;;;;;3.30;3.03;;;32.30;48.00;;;;;;5059200;28;20622;-74
2023/07/09 10:07:22;;;;;;;3.23;2.93;;;32.40;45.70;;;;;;5064314;28;20668;-74
2023/07/09 10:09:51;;;;;;;3.23;2.93;;;32.50;46.00;;;;;;5063807;28;20633;-74
2023/07/09 10:12:34;;;;;;;2.17;1.97;;;32.50;46.60;;;;;;5060048;28;20668;-74
2023/07/09 10:15:09;;;;;;;2.23;2.03;;;32.70;44.50;;;;;;5062612;28;20626;-74
2023/07/09 10:17:40;;;;;;;2.20;2.03;;;32.80;44.10;;;;;;5067401;28;20620;-75
2023/07/09 10:20:18;;;;;;;2.10;2.00;;;32.80;43.90;;;;;;5064216;28;20670;-74
2023/07/09 10:22:54;;;;;;;3.30;2.67;;;33.00;43.80;;;;;;5067597;28;20624;-74
2023/07/09 10:25:37;;;;;;;2.17;1.97;;;33.40;44.70;;;;;;5059646;28;20618;-74
2023/07/09 10:28:23;;;;;;;5.87;2.80;;;33.20;44.60;;;;;;5060529;28;20712;-75
2023/07/09 10:31:05;;;;;;;3.63;1.93;;;33.20;44.00;;;;;;5061097;28;20656;-75
2023/07/09 10:33:40;;;;;;;2.63;2.13;;;33.40;43.40;;;;;;5064323;28;20661;-74
2023/07/09 10:36:22;;;;;;;2.60;2.40;;;33.60;44.10;;;;;;5068222;28;20667;-75
2023/07/09 10:38:58;;;;;;;3.40;3.03;;;34.00;43.00;;;;;;5061201;28;20625;-74
2023/07/09 10:41:26;;;;;;;2.30;2.10;;;33.70;43.10;;;;;;5065741;28;20663;-75
2023/07/09 10:43:58;;;;;;;2.80;2.10;;;33.80;42.50;;;;;;5059711;28;20629;-74
2023/07/09 10:46:28;;;;;;;2.27;2.03;;;33.90;41.50;;;;;;5060160;28;20672;-74
2023/07/09 10:48:57;;;;;;;3.43;2.20;;;34.10;41.00;;;;;;5056128;28;21220;-74
2023/07/09 10:51:29;;;;;;;4.80;2.37;;;34.10;40.50;;;;;;5063213;28;20661;-75
2023/07/09 10:53:59;;;;;;;2.17;2.07;;;34.10;40.10;;;;;;5064802;28;20629;-75
2023/07/09 10:56:28;;;;;;;2.97;2.67;;;34.20;39.70;;;;;;5058296;28;20668;-74
2023/07/09 10:59:04;;;;;;;2.23;2.03;;;34.30;40.00;;;;;;5062111;28;20625;-75
2023/07/09 11:01:32;;;;;;;2.30;2.10;;;34.40;39.20;;;;;;5055169;28;20661;-75
2023/07/09 11:04:06;;;;;;;1.80;1.70;;;34.60;40.00;;;;;;5065608;28;20724;-74
2023/07/09 11:06:38;;;;;;;3.50;2.23;;;34.70;39.30;;;;;;5059509;28;21726;-74
2023/07/09 11:09:12;;;;;;;2.27;2.17;;;35.00;38.40;;;;;;5062851;28;20650;-75
2023/07/09 11:11:44;;;;;;;2.03;1.87;;;35.00;38.70;;;;;;5060664;28;21209;-75
2023/07/09 11:14:24;;;;;;;2.80;1.70;;;35.20;38.10;;;;;;5065649;28;20626;-74
2023/07/09 11:16:51;;;;;;;1.80;1.70;;;35.20;37.40;;;;;;5062937;28;20656;-75
2023/07/09 11:19:21;;;;;;;2.27;2.17;;;35.40;38.10;;;;;;5065579;28;21266;-75
2023/07/09 11:22:00;;;;;;;2.73;2.00;;;35.50;37.10;;;;;;5065019;28;20924;-74
2023/07/09 11:24:32;;;;;;;3.43;2.93;;;35.80;36.30;;;;;;5064550;28;20632;-75
2023/07/09 11:27:00;;;;;;;1.90;1.77;;;35.90;36.60;;;;;;5059180;28;20653;-75
2023/07/09 11:29:26;;;;;;;2.23;2.03;;;36.00;36.30;;;;;;5066657;28;20629;-75
2023/07/09 11:31:53;;;;;;;2.37;2.00;;;36.20;37.20;;;;;;5066282;28;20706;-75
2023/07/09 11:34:27;;;;;;;2.40;2.20;;;36.40;35.90;;;;;;5060156;28;21210;-74
2023/07/09 11:36:58;;;;;;;3.30;2.47;;;36.70;35.20;;;;;;5062478;28;20654;-75
2023/07/09 11:39:30;;;;;;;2.30;2.10;;;36.80;34.20;;;;;;5055868;28;20631;-75
2023/07/09 11:41:57;;;;;;;2.27;1.90;;;37.10;34.00;;;;;;5065704;28;20662;-75
2023/07/09 11:44:28;;;;;;;2.50;2.03;;;37.30;34.40;;;;;;5058505;28;20632;-75
2023/07/09 11:47:17;;;;;;;1.90;1.80;;;37.50;34.00;;;;;;5065043;28;21232;-75
2023/07/09 11:49:52;;;;;;;2.47;2.27;;;37.80;33.70;;;;;;5059085;28;20626;-75
2023/07/09 11:52:25;;;;;;;2.40;2.20;;;38.10;33.10;;;;;;5061697;28;21239;-75
2023/07/09 11:54:53;;;;;;;3.47;1.90;;;38.40;34.10;;;;;;5064135;28;20637;-75
2023/07/09 11:57:20;;;;;;;2.00;1.77;;;38.50;33.90;;;;;;5060539;28;20702;-77
2023/07/09 11:59:46;;;;;;;2.63;2.30;;;38.40;34.60;;;;;;5063702;28;20633;-76
2023/07/09 12:02:18;;;;;;;3.10;2.47;;;39.10;32.80;;;;;;5059903;28;20640;-76
2023/07/09 12:04:48;;;;;;;2.13;2.00;;;39.30;32.60;;;;;;5062041;28;20542;-76
2023/07/09 12:07:16;;;;;;;2.28;2.08;;;39.70;32.80;;;;;;5057454;28;20222;-76
2023/07/09 12:09:50;;;;;;;3.03;2.78;;;39.90;32.80;;;;;;5065973;28;20199;-76
2023/07/09 12:12:20;;;;;;;2.67;2.47;;;40.10;32.20;;;;;;5058099;28;20315;-76
2023/07/09 12:14:52;;;;;;;2.78;2.20;;;40.00;32.30;;;;;;5061598;28;20247;-76
2023/07/09 12:17:19;;;;;;;2.10;1.80;;;40.80;31.30;;;;;;5058701;28;20367;-76
2023/07/09 12:19:47;;;;;;;2.72;1.88;;;41.60;30.80;;;;;;5066988;28;20609;-77
2023/07/09 12:22:22;;;;;;;2.65;2.42;;;42.10;30.50;;;;;;5057676;28;20257;-75
2023/07/09 12:24:51;;;;;;;4.25;2.38;;;42.50;30.30;;;;;;5066577;28;20199;-75
2023/07/09 12:27:21;;;;;;;2.42;2.20;;;43.00;29.60;;;;;;5063738;28;20223;-75
2023/07/09 12:29:51;;;;;;;2.58;2.10;;;43.40;29.80;;;;;;5065709;28;20639;-75
2023/07/09 12:32:20;;;;;;;2.03;1.90;;;43.60;29.30;;;;;;5067431;28;20222;-75
2023/07/09 12:34:53;;;;;;;2.20;2.00;;;43.60;28.90;;;;;;5069319;28;20195;-76
2023/07/09 12:37:23;;;;;;;2.42;2.08;;;43.70;29.20;;;;;;5067005;28;20226;-76
2023/07/09 12:39:52;;;;;;;3.08;2.30;;;43.90;29.20;;;;;;5066577;28;20199;-76
2023/07/09 12:42:24;;;;;;;2.75;2.22;;;44.00;28.50;;;;;;5065992;28;20230;-76
2023/07/09 12:44:51;;;;;;;3.25;2.50;;;44.30;28.60;;;;;;5064868;28;20282;-76
2023/07/09 12:47:29;;;;;;;2.42;2.22;;;44.40;28.20;;;;;;5058232;28;20223;-75
2023/07/09 12:50:04;;;;;;;3.00;2.50;;;44.70;28.00;;;;;;5061622;28;20195;-74
2023/07/09 12:52:31;;;;;;;2.47;2.28;;;44.80;28.00;;;;;;5068503;28;20302;-75
2023/07/09 12:54:59;;;;;;;2.35;2.13;;;44.70;28.30;;;;;;5060074;28;20207;-75
2023/07/09 12:57:27;;;;;;;3.13;2.35;;;44.70;27.80;;;;;;5063280;28;20249;-75
2023/07/09 12:59:56;;;;;;;1.77;1.65;;;45.10;27.70;;;;;;5064216;28;20221;-77